sensor_id;sensor_type;location;lat;lon;timestamp;P1;durP1;ratioP1;P2;durP2;ratioP2
37115;SDS011;23025;41.996;23.098;2023-01-16T00:00:35;2.15;;;1.67;;
37115;SDS011;23025;41.996;23.098;2023-01-16T00:03:01;1.00;;;1.00;;
37115;SDS011;23025;41.996;23.098;2023-01-16T00:05:27;3.33;;;3.05;;
37115;SDS011;23025;41.996;23.098;2023-01-16T00:07:54;0.70;;;0.70;;
37115;SDS011;23025;41.996;23.098;2023-01-16T00:10:20;1.67;;;1.58;;
37115;SDS011;23025;41.996;23.098;2023-01-16T00:12:47;1.80;;;1.70;;
37115;SDS011;23025;41.996;23.098;2023-01-16T00:15:15;0.85;;;0.85;;
37115;SDS011;23025;41.996;23.098;2023-01-16T00:17:41;1.10;;;1.02;;
37115;SDS011;23025;41.996;23.098;2023-01-16T00:20:09;3.63;;;1.27;;
37115;SDS011;23025;41.996;23.098;2023-01-16T00:22:35;1.40;;;0.85;;
37115;SDS011;23025;41.996;23.098;2023-01-16T00:25:02;1.85;;;1.75;;
37115;SDS011;23025;41.996;23.098;2023-01-16T00:27:28;0.60;;;0.60;;
37115;SDS011;23025;41.996;23.098;2023-01-16T00:29:55;1.23;;;1.23;;
37115;SDS011;23025;41.996;23.098;2023-01-16T00:32:23;1.42;;;1.33;;
37115;SDS011;23025;41.996;23.098;2023-01-16T00:34:49;0.80;;;0.80;;
37115;SDS011;23025;41.996;23.098;2023-01-16T00:37:16;1.55;;;0.98;;
37115;SDS011;23025;41.996;23.098;2023-01-16T00:39:42;2.47;;;1.92;;
37115;SDS011;23025;41.996;23.098;2023-01-16T00:42:09;0.82;;;0.82;;
37115;SDS011;23025;41.996;23.098;2023-01-16T00:44:35;0.93;;;0.90;;
37115;SDS011;23025;41.996;23.098;2023-01-16T00:47:02;2.22;;;2.03;;
37115;SDS011;23025;41.996;23.098;2023-01-16T00:49:30;1.92;;;1.83;;
37115;SDS011;23025;41.996;23.098;2023-01-16T00:51:57;1.98;;;1.88;;
37115;SDS011;23025;41.996;23.098;2023-01-16T00:54:24;1.05;;;1.05;;
37115;SDS011;23025;41.996;23.098;2023-01-16T00:56:50;0.85;;;0.85;;
37115;SDS011;23025;41.996;23.098;2023-01-16T00:59:17;0.65;;;0.65;;
37115;SDS011;23025;41.996;23.098;2023-01-16T01:01:43;1.73;;;1.63;;
37115;SDS011;23025;41.996;23.098;2023-01-16T01:04:10;1.77;;;1.27;;
37115;SDS011;23025;41.996;23.098;2023-01-16T01:06:39;0.73;;;0.73;;
37115;SDS011;23025;41.996;23.098;2023-01-16T01:09:05;6.85;;;1.95;;
37115;SDS011;23025;41.996;23.098;2023-01-16T01:11:32;5.85;;;1.83;;
37115;SDS011;23025;41.996;23.098;2023-01-16T01:13:58;1.67;;;1.58;;
37115;SDS011;23025;41.996;23.098;2023-01-16T01:16:25;0.85;;;0.85;;
37115;SDS011;23025;41.996;23.098;2023-01-16T01:18:51;0.60;;;0.60;;
37115;SDS011;23025;41.996;23.098;2023-01-16T01:21:18;1.67;;;1.58;;
37115;SDS011;23025;41.996;23.098;2023-01-16T01:23:46;2.20;;;2.10;;
37115;SDS011;23025;41.996;23.098;2023-01-16T01:26:15;5.38;;;3.20;;
37115;SDS011;23025;41.996;23.098;2023-01-16T01:28:41;4.40;;;4.10;;
37115;SDS011;23025;41.996;23.098;2023-01-16T01:31:09;2.15;;;2.05;;
37115;SDS011;23025;41.996;23.098;2023-01-16T01:33:36;1.15;;;1.15;;
37115;SDS011;23025;41.996;23.098;2023-01-16T01:36:03;1.13;;;0.93;;
37115;SDS011;23025;41.996;23.098;2023-01-16T01:38:30;1.95;;;0.88;;
37115;SDS011;23025;41.996;23.098;2023-01-16T01:40:58;0.80;;;0.80;;
37115;SDS011;23025;41.996;23.098;2023-01-16T01:43:38;2.17;;;1.85;;
37115;SDS011;23025;41.996;23.098;2023-01-16T01:46:05;0.65;;;0.65;;
37115;SDS011;23025;41.996;23.098;2023-01-16T01:48:33;1.05;;;1.05;;
37115;SDS011;23025;41.996;23.098;2023-01-16T01:51:03;2.13;;;1.98;;
37115;SDS011;23025;41.996;23.098;2023-01-16T01:53:33;2.17;;;1.85;;
37115;SDS011;23025;41.996;23.098;2023-01-16T01:56:03;0.95;;;0.95;;
37115;SDS011;23025;41.996;23.098;2023-01-16T01:58:31;2.33;;;2.22;;
37115;SDS011;23025;41.996;23.098;2023-01-16T02:00:59;0.40;;;0.40;;
37115;SDS011;23025;41.996;23.098;2023-01-16T02:03:27;3.85;;;3.55;;
37115;SDS011;23025;41.996;23.098;2023-01-16T02:05:58;2.13;;;1.25;;
37115;SDS011;23025;41.996;23.098;2023-01-16T02:08:28;1.33;;;1.30;;
37115;SDS011;23025;41.996;23.098;2023-01-16T02:10:56;1.30;;;1.25;;
37115;SDS011;23025;41.996;23.098;2023-01-16T02:13:26;1.48;;;1.35;;
37115;SDS011;23025;41.996;23.098;2023-01-16T02:15:53;2.78;;;2.25;;
37115;SDS011;23025;41.996;23.098;2023-01-16T02:18:38;1.77;;;1.42;;
37115;SDS011;23025;41.996;23.098;2023-01-16T02:21:31;0.85;;;0.85;;
37115;SDS011;23025;41.996;23.098;2023-01-16T02:24:14;3.75;;;3.55;;
37115;SDS011;23025;41.996;23.098;2023-01-16T02:34:51;0.85;;;0.85;;
37115;SDS011;23025;41.996;23.098;2023-01-16T02:37:23;0.80;;;0.80;;
37115;SDS011;23025;41.996;23.098;2023-01-16T02:39:53;0.52;;;0.52;;
37115;SDS011;23025;41.996;23.098;2023-01-16T02:42:24;0.70;;;0.70;;
37115;SDS011;23025;41.996;23.098;2023-01-16T02:44:54;0.70;;;0.70;;
37115;SDS011;23025;41.996;23.098;2023-01-16T02:47:24;0.90;;;0.90;;
37115;SDS011;23025;41.996;23.098;2023-01-16T02:49:55;0.55;;;0.55;;
37115;SDS011;23025;41.996;23.098;2023-01-16T02:52:30;0.40;;;0.40;;
37115;SDS011;23025;41.996;23.098;2023-01-16T02:54:59;3.25;;;1.73;;
37115;SDS011;23025;41.996;23.098;2023-01-16T02:57:29;0.25;;;0.25;;
37115;SDS011;23025;41.996;23.098;2023-01-16T02:59:57;0.70;;;0.70;;
37115;SDS011;23025;41.996;23.098;2023-01-16T03:02:24;2.70;;;2.60;;
37115;SDS011;23025;41.996;23.098;2023-01-16T03:04:51;0.47;;;0.47;;
37115;SDS011;23025;41.996;23.098;2023-01-16T03:07:28;0.70;;;0.70;;
37115;SDS011;23025;41.996;23.098;2023-01-16T03:10:00;1.30;;;1.30;;
37115;SDS011;23025;41.996;23.098;2023-01-16T03:12:30;2.70;;;2.50;;
37115;SDS011;23025;41.996;23.098;2023-01-16T03:15:01;0.30;;;0.30;;
37115;SDS011;23025;41.996;23.098;2023-01-16T03:17:35;0.73;;;0.73;;
37115;SDS011;23025;41.996;23.098;2023-01-16T03:20:08;0.63;;;0.63;;
37115;SDS011;23025;41.996;23.098;2023-01-16T03:22:39;1.25;;;0.95;;
37115;SDS011;23025;41.996;23.098;2023-01-16T03:25:12;1.80;;;1.70;;
37115;SDS011;23025;41.996;23.098;2023-01-16T03:27:44;0.82;;;0.82;;
37115;SDS011;23025;41.996;23.098;2023-01-16T03:30:18;0.45;;;0.45;;
37115;SDS011;23025;41.996;23.098;2023-01-16T03:32:49;0.90;;;0.90;;
37115;SDS011;23025;41.996;23.098;2023-01-16T03:35:17;1.48;;;1.38;;
37115;SDS011;23025;41.996;23.098;2023-01-16T03:37:48;0.85;;;0.85;;
37115;SDS011;23025;41.996;23.098;2023-01-16T03:40:17;1.13;;;1.05;;
37115;SDS011;23025;41.996;23.098;2023-01-16T03:42:45;2.00;;;1.88;;
37115;SDS011;23025;41.996;23.098;2023-01-16T03:45:15;1.10;;;1.10;;
37115;SDS011;23025;41.996;23.098;2023-01-16T03:47:42;1.80;;;1.70;;
37115;SDS011;23025;41.996;23.098;2023-01-16T03:50:12;0.80;;;0.80;;
37115;SDS011;23025;41.996;23.098;2023-01-16T03:52:40;1.60;;;1.50;;
37115;SDS011;23025;41.996;23.098;2023-01-16T03:55:14;0.82;;;0.73;;
37115;SDS011;23025;41.996;23.098;2023-01-16T03:57:43;0.70;;;0.70;;
37115;SDS011;23025;41.996;23.098;2023-01-16T04:00:11;1.85;;;1.75;;
37115;SDS011;23025;41.996;23.098;2023-01-16T04:02:40;2.08;;;1.98;;
37115;SDS011;23025;41.996;23.098;2023-01-16T04:05:11;2.63;;;2.42;;
37115;SDS011;23025;41.996;23.098;2023-01-16T04:10:08;0.88;;;0.82;;
37115;SDS011;23025;41.996;23.098;2023-01-16T04:12:38;1.45;;;1.42;;
37115;SDS011;23025;41.996;23.098;2023-01-16T04:15:07;0.63;;;0.63;;
37115;SDS011;23025;41.996;23.098;2023-01-16T04:17:34;3.15;;;3.05;;
37115;SDS011;23025;41.996;23.098;2023-01-16T04:20:01;0.85;;;0.85;;
37115;SDS011;23025;41.996;23.098;2023-01-16T04:22:28;1.35;;;1.27;;
37115;SDS011;23025;41.996;23.098;2023-01-16T04:24:55;1.67;;;1.58;;
37115;SDS011;23025;41.996;23.098;2023-01-16T04:27:22;1.80;;;1.65;;
37115;SDS011;23025;41.996;23.098;2023-01-16T04:29:50;0.98;;;0.98;;
37115;SDS011;23025;41.996;23.098;2023-01-16T04:32:17;2.05;;;1.95;;
37115;SDS011;23025;41.996;23.098;2023-01-16T04:34:43;0.60;;;0.55;;
37115;SDS011;23025;41.996;23.098;2023-01-16T04:37:10;1.42;;;1.33;;
37115;SDS011;23025;41.996;23.098;2023-01-16T04:39:38;0.88;;;0.88;;
37115;SDS011;23025;41.996;23.098;2023-01-16T04:42:05;2.42;;;1.88;;
37115;SDS011;23025;41.996;23.098;2023-01-16T04:44:32;1.00;;;1.00;;
37115;SDS011;23025;41.996;23.098;2023-01-16T04:47:00;0.80;;;0.80;;
37115;SDS011;23025;41.996;23.098;2023-01-16T04:49:26;3.60;;;3.33;;
37115;SDS011;23025;41.996;23.098;2023-01-16T04:51:53;1.38;;;1.30;;
37115;SDS011;23025;41.996;23.098;2023-01-16T04:54:19;2.38;;;0.93;;
37115;SDS011;23025;41.996;23.098;2023-01-16T04:56:46;0.60;;;0.57;;
37115;SDS011;23025;41.996;23.098;2023-01-16T04:59:13;1.13;;;1.13;;
37115;SDS011;23025;41.996;23.098;2023-01-16T05:01:40;1.48;;;0.90;;
37115;SDS011;23025;41.996;23.098;2023-01-16T05:04:09;0.47;;;0.47;;
37115;SDS011;23025;41.996;23.098;2023-01-16T05:06:36;0.95;;;0.90;;
37115;SDS011;23025;41.996;23.098;2023-01-16T05:09:02;1.35;;;1.27;;
37115;SDS011;23025;41.996;23.098;2023-01-16T05:11:29;1.20;;;1.20;;
37115;SDS011;23025;41.996;23.098;2023-01-16T05:13:56;0.93;;;0.93;;
37115;SDS011;23025;41.996;23.098;2023-01-16T05:16:23;1.02;;;1.02;;
37115;SDS011;23025;41.996;23.098;2023-01-16T05:18:49;2.03;;;1.88;;
37115;SDS011;23025;41.996;23.098;2023-01-16T05:21:17;1.17;;;1.13;;
37115;SDS011;23025;41.996;23.098;2023-01-16T05:23:44;1.02;;;1.02;;
37115;SDS011;23025;41.996;23.098;2023-01-16T05:26:10;1.30;;;1.27;;
37115;SDS011;23025;41.996;23.098;2023-01-16T05:28:37;2.75;;;2.55;;
37115;SDS011;23025;41.996;23.098;2023-01-16T05:31:03;1.65;;;1.55;;
37115;SDS011;23025;41.996;23.098;2023-01-16T05:33:30;3.00;;;2.80;;
37115;SDS011;23025;41.996;23.098;2023-01-16T05:35:56;2.45;;;1.75;;
37115;SDS011;23025;41.996;23.098;2023-01-16T05:38:24;5.05;;;4.65;;
37115;SDS011;23025;41.996;23.098;2023-01-16T05:40:51;0.98;;;0.98;;
37115;SDS011;23025;41.996;23.098;2023-01-16T05:43:17;1.45;;;1.35;;
37115;SDS011;23025;41.996;23.098;2023-01-16T05:45:43;0.90;;;0.90;;
37115;SDS011;23025;41.996;23.098;2023-01-16T05:48:10;1.63;;;1.52;;
37115;SDS011;23025;41.996;23.098;2023-01-16T05:50:37;1.63;;;1.52;;
37115;SDS011;23025;41.996;23.098;2023-01-16T05:53:03;1.23;;;0.77;;
37115;SDS011;23025;41.996;23.098;2023-01-16T05:55:31;3.00;;;2.65;;
37115;SDS011;23025;41.996;23.098;2023-01-16T05:57:58;0.50;;;0.50;;
37115;SDS011;23025;41.996;23.098;2023-01-16T06:00:24;2.33;;;2.22;;
37115;SDS011;23025;41.996;23.098;2023-01-16T06:02:51;0.40;;;0.40;;
37115;SDS011;23025;41.996;23.098;2023-01-16T06:05:18;0.63;;;0.63;;
37115;SDS011;23025;41.996;23.098;2023-01-16T06:07:44;1.80;;;1.70;;
37115;SDS011;23025;41.996;23.098;2023-01-16T06:10:11;1.58;;;1.48;;
37115;SDS011;23025;41.996;23.098;2023-01-16T06:12:38;0.88;;;0.88;;
37115;SDS011;23025;41.996;23.098;2023-01-16T06:15:05;1.75;;;1.52;;
37115;SDS011;23025;41.996;23.098;2023-01-16T06:17:32;1.27;;;1.27;;
37115;SDS011;23025;41.996;23.098;2023-01-16T06:19:59;2.88;;;1.65;;
37115;SDS011;23025;41.996;23.098;2023-01-16T06:22:25;0.40;;;0.40;;
37115;SDS011;23025;41.996;23.098;2023-01-16T06:24:52;2.58;;;1.30;;
37115;SDS011;23025;41.996;23.098;2023-01-16T06:27:18;2.65;;;2.45;;
37115;SDS011;23025;41.996;23.098;2023-01-16T06:29:46;0.98;;;0.98;;
37115;SDS011;23025;41.996;23.098;2023-01-16T06:32:13;1.63;;;1.50;;
37115;SDS011;23025;41.996;23.098;2023-01-16T06:34:41;1.00;;;1.00;;
37115;SDS011;23025;41.996;23.098;2023-01-16T06:37:07;0.93;;;0.93;;
37115;SDS011;23025;41.996;23.098;2023-01-16T06:39:34;2.35;;;2.25;;
37115;SDS011;23025;41.996;23.098;2023-01-16T06:42:00;3.13;;;2.88;;
37115;SDS011;23025;41.996;23.098;2023-01-16T06:44:29;3.72;;;3.42;;
37115;SDS011;23025;41.996;23.098;2023-01-16T06:46:57;3.22;;;2.30;;
37115;SDS011;23025;41.996;23.098;2023-01-16T06:49:24;1.95;;;1.85;;
37115;SDS011;23025;41.996;23.098;2023-01-16T06:51:50;1.70;;;1.60;;
37115;SDS011;23025;41.996;23.098;2023-01-16T06:54:17;3.25;;;2.75;;
37115;SDS011;23025;41.996;23.098;2023-01-16T06:56:43;1.00;;;1.00;;
37115;SDS011;23025;41.996;23.098;2023-01-16T06:59:10;2.78;;;2.58;;
37115;SDS011;23025;41.996;23.098;2023-01-16T07:01:36;1.63;;;1.52;;
37115;SDS011;23025;41.996;23.098;2023-01-16T07:04:04;4.00;;;3.70;;
37115;SDS011;23025;41.996;23.098;2023-01-16T07:06:31;3.30;;;3.20;;
37115;SDS011;23025;41.996;23.098;2023-01-16T07:08:58;1.40;;;1.30;;
37115;SDS011;23025;41.996;23.098;2023-01-16T07:11:25;1.13;;;1.13;;
37115;SDS011;23025;41.996;23.098;2023-01-16T07:13:51;1.58;;;1.52;;
37115;SDS011;23025;41.996;23.098;2023-01-16T07:16:39;3.47;;;3.28;;
37115;SDS011;23025;41.996;23.098;2023-01-16T07:22:08;7.75;;;3.47;;
37115;SDS011;23025;41.996;23.098;2023-01-16T07:24:54;10.20;;;4.47;;
37115;SDS011;23025;41.996;23.098;2023-01-16T07:27:20;4.65;;;3.47;;
37115;SDS011;23025;41.996;23.098;2023-01-16T07:29:47;3.90;;;3.55;;
37115;SDS011;23025;41.996;23.098;2023-01-16T07:32:13;2.97;;;2.55;;
37115;SDS011;23025;41.996;23.098;2023-01-16T07:34:40;2.20;;;2.10;;
37115;SDS011;23025;41.996;23.098;2023-01-16T07:37:08;5.80;;;4.97;;
37115;SDS011;23025;41.996;23.098;2023-01-16T07:39:35;2.90;;;2.63;;
37115;SDS011;23025;41.996;23.098;2023-01-16T07:42:02;3.83;;;3.63;;
37115;SDS011;23025;41.996;23.098;2023-01-16T07:44:29;4.07;;;3.78;;
37115;SDS011;23025;41.996;23.098;2023-01-16T07:46:55;3.42;;;3.22;;
37115;SDS011;23025;41.996;23.098;2023-01-16T07:49:22;2.42;;;2.33;;
37115;SDS011;23025;41.996;23.098;2023-01-16T07:51:48;3.65;;;3.35;;
37115;SDS011;23025;41.996;23.098;2023-01-16T07:54:17;9.15;;;3.70;;
37115;SDS011;23025;41.996;23.098;2023-01-16T07:56:43;3.53;;;3.25;;
37115;SDS011;23025;41.996;23.098;2023-01-16T07:59:10;4.30;;;4.00;;
37115;SDS011;23025;41.996;23.098;2023-01-16T08:01:36;2.50;;;2.30;;
37115;SDS011;23025;41.996;23.098;2023-01-16T08:04:04;5.82;;;5.28;;
37115;SDS011;23025;41.996;23.098;2023-01-16T08:06:31;3.20;;;2.97;;
37115;SDS011;23025;41.996;23.098;2023-01-16T08:09:00;5.22;;;4.05;;
37115;SDS011;23025;41.996;23.098;2023-01-16T08:11:28;3.65;;;3.45;;
37115;SDS011;23025;41.996;23.098;2023-01-16T08:14:04;5.88;;;5.40;;
37115;SDS011;23025;41.996;23.098;2023-01-16T08:16:31;5.80;;;4.32;;
37115;SDS011;23025;41.996;23.098;2023-01-16T08:18:57;3.85;;;3.55;;
37115;SDS011;23025;41.996;23.098;2023-01-16T08:21:24;12.52;;;4.85;;
37115;SDS011;23025;41.996;23.098;2023-01-16T08:23:51;1.88;;;1.77;;
37115;SDS011;23025;41.996;23.098;2023-01-16T08:26:18;3.65;;;3.45;;
37115;SDS011;23025;41.996;23.098;2023-01-16T08:28:46;6.20;;;4.28;;
37115;SDS011;23025;41.996;23.098;2023-01-16T08:31:13;4.30;;;4.07;;
37115;SDS011;23025;41.996;23.098;2023-01-16T08:33:41;4.25;;;4.00;;
37115;SDS011;23025;41.996;23.098;2023-01-16T08:36:08;5.28;;;4.88;;
37115;SDS011;23025;41.996;23.098;2023-01-16T08:38:36;8.35;;;6.95;;
37115;SDS011;23025;41.996;23.098;2023-01-16T08:41:02;6.78;;;6.10;;
37115;SDS011;23025;41.996;23.098;2023-01-16T08:43:29;5.32;;;4.88;;
37115;SDS011;23025;41.996;23.098;2023-01-16T08:46:17;8.95;;;5.65;;
37115;SDS011;23025;41.996;23.098;2023-01-16T08:49:02;9.85;;;9.13;;
37115;SDS011;23025;41.996;23.098;2023-01-16T08:51:46;6.25;;;3.65;;
37115;SDS011;23025;41.996;23.098;2023-01-16T08:54:13;4.68;;;4.47;;
37115;SDS011;23025;41.996;23.098;2023-01-16T08:56:40;5.78;;;5.38;;
37115;SDS011;23025;41.996;23.098;2023-01-16T08:59:07;9.85;;;8.95;;
37115;SDS011;23025;41.996;23.098;2023-01-16T09:01:36;11.07;;;7.47;;
37115;SDS011;23025;41.996;23.098;2023-01-16T09:04:03;13.32;;;12.30;;
37115;SDS011;23025;41.996;23.098;2023-01-16T09:06:30;11.85;;;8.35;;
37115;SDS011;23025;41.996;23.098;2023-01-16T09:08:56;14.40;;;12.63;;
37115;SDS011;23025;41.996;23.098;2023-01-16T09:11:23;19.88;;;17.98;;
37115;SDS011;23025;41.996;23.098;2023-01-16T09:14:07;24.05;;;21.77;;
37115;SDS011;23025;41.996;23.098;2023-01-16T09:16:33;19.70;;;17.55;;
37115;SDS011;23025;41.996;23.098;2023-01-16T09:19:01;14.55;;;9.95;;
37115;SDS011;23025;41.996;23.098;2023-01-16T09:21:28;10.43;;;9.10;;
37115;SDS011;23025;41.996;23.098;2023-01-16T09:23:55;10.65;;;7.72;;
37115;SDS011;23025;41.996;23.098;2023-01-16T09:26:21;9.65;;;8.93;;
37115;SDS011;23025;41.996;23.098;2023-01-16T09:28:48;8.57;;;7.68;;
37115;SDS011;23025;41.996;23.098;2023-01-16T09:31:14;4.72;;;4.10;;
37115;SDS011;23025;41.996;23.098;2023-01-16T09:33:41;5.47;;;5.10;;
37115;SDS011;23025;41.996;23.098;2023-01-16T09:36:09;7.95;;;7.15;;
37115;SDS011;23025;41.996;23.098;2023-01-16T09:38:36;7.70;;;6.53;;
37115;SDS011;23025;41.996;23.098;2023-01-16T09:41:02;3.63;;;3.30;;
37115;SDS011;23025;41.996;23.098;2023-01-16T09:43:33;3.72;;;3.40;;
37115;SDS011;23025;41.996;23.098;2023-01-16T09:46:04;9.60;;;7.05;;
37115;SDS011;23025;41.996;23.098;2023-01-16T09:48:31;9.75;;;5.40;;
37115;SDS011;23025;41.996;23.098;2023-01-16T09:50:59;2.47;;;2.35;;
37115;SDS011;23025;41.996;23.098;2023-01-16T09:53:32;3.33;;;3.08;;
37115;SDS011;23025;41.996;23.098;2023-01-16T09:56:24;8.05;;;7.28;;
37115;SDS011;23025;41.996;23.098;2023-01-16T09:59:13;3.83;;;3.15;;
37115;SDS011;23025;41.996;23.098;2023-01-16T10:01:41;3.63;;;3.33;;
37115;SDS011;23025;41.996;23.098;2023-01-16T10:04:10;4.93;;;4.47;;
37115;SDS011;23025;41.996;23.098;2023-01-16T10:06:42;3.08;;;2.88;;
37115;SDS011;23025;41.996;23.098;2023-01-16T10:09:13;3.22;;;3.03;;
37115;SDS011;23025;41.996;23.098;2023-01-16T10:11:46;1.58;;;1.48;;
37115;SDS011;23025;41.996;23.098;2023-01-16T10:14:19;5.18;;;4.90;;
37115;SDS011;23025;41.996;23.098;2023-01-16T10:16:56;1.88;;;1.77;;
37115;SDS011;23025;41.996;23.098;2023-01-16T10:19:28;1.63;;;1.52;;
37115;SDS011;23025;41.996;23.098;2023-01-16T10:22:01;3.35;;;3.13;;
37115;SDS011;23025;41.996;23.098;2023-01-16T10:24:36;2.65;;;2.55;;
37115;SDS011;23025;41.996;23.098;2023-01-16T10:27:09;5.15;;;4.75;;
37115;SDS011;23025;41.996;23.098;2023-01-16T10:29:38;2.88;;;2.67;;
37115;SDS011;23025;41.996;23.098;2023-01-16T10:32:09;2.17;;;2.08;;
37115;SDS011;23025;41.996;23.098;2023-01-16T10:34:38;3.33;;;3.22;;
37115;SDS011;23025;41.996;23.098;2023-01-16T10:37:06;2.35;;;2.22;;
37115;SDS011;23025;41.996;23.098;2023-01-16T10:39:36;4.85;;;4.65;;
37115;SDS011;23025;41.996;23.098;2023-01-16T10:42:09;5.20;;;4.90;;
37115;SDS011;23025;41.996;23.098;2023-01-16T10:44:56;2.58;;;2.33;;
37115;SDS011;23025;41.996;23.098;2023-01-16T10:47:41;3.75;;;3.45;;
37115;SDS011;23025;41.996;23.098;2023-01-16T10:50:25;4.40;;;4.20;;
37115;SDS011;23025;41.996;23.098;2023-01-16T10:52:52;4.68;;;4.40;;
37115;SDS011;23025;41.996;23.098;2023-01-16T10:55:20;3.20;;;2.95;;
37115;SDS011;23025;41.996;23.098;2023-01-16T10:57:49;3.97;;;3.72;;
37115;SDS011;23025;41.996;23.098;2023-01-16T11:02:45;4.07;;;3.78;;
37115;SDS011;23025;41.996;23.098;2023-01-16T11:05:22;2.47;;;2.33;;
37115;SDS011;23025;41.996;23.098;2023-01-16T11:07:48;3.22;;;3.00;;
37115;SDS011;23025;41.996;23.098;2023-01-16T11:10:15;2.63;;;2.42;;
37115;SDS011;23025;41.996;23.098;2023-01-16T11:15:42;4.35;;;3.97;;
37115;SDS011;23025;41.996;23.098;2023-01-16T11:18:42;3.90;;;3.60;;
37115;SDS011;23025;41.996;23.098;2023-01-16T11:21:13;3.92;;;3.72;;
37115;SDS011;23025;41.996;23.098;2023-01-16T11:23:41;3.50;;;3.38;;
37115;SDS011;23025;41.996;23.098;2023-01-16T11:26:07;3.85;;;3.72;;
37115;SDS011;23025;41.996;23.098;2023-01-16T11:28:35;3.97;;;3.63;;
37115;SDS011;23025;41.996;23.098;2023-01-16T11:31:06;4.13;;;3.92;;
37115;SDS011;23025;41.996;23.098;2023-01-16T11:33:37;2.63;;;2.42;;
37115;SDS011;23025;41.996;23.098;2023-01-16T11:36:06;4.25;;;4.05;;
37115;SDS011;23025;41.996;23.098;2023-01-16T11:38:34;5.53;;;5.22;;
37115;SDS011;23025;41.996;23.098;2023-01-16T11:41:03;3.50;;;3.30;;
37115;SDS011;23025;41.996;23.098;2023-01-16T11:43:31;2.70;;;2.60;;
37115;SDS011;23025;41.996;23.098;2023-01-16T11:46:28;4.18;;;3.97;;
37115;SDS011;23025;41.996;23.098;2023-01-16T11:48:58;2.67;;;2.58;;
37115;SDS011;23025;41.996;23.098;2023-01-16T11:51:26;3.42;;;3.22;;
37115;SDS011;23025;41.996;23.098;2023-01-16T11:53:54;3.63;;;3.42;;
37115;SDS011;23025;41.996;23.098;2023-01-16T11:56:28;1.98;;;1.83;;
37115;SDS011;23025;41.996;23.098;2023-01-16T11:59:00;4.60;;;4.35;;
37115;SDS011;23025;41.996;23.098;2023-01-16T12:01:34;4.20;;;3.85;;
37115;SDS011;23025;41.996;23.098;2023-01-16T12:04:19;6.43;;;5.90;;
37115;SDS011;23025;41.996;23.098;2023-01-16T12:06:51;4.05;;;3.83;;
37115;SDS011;23025;41.996;23.098;2023-01-16T12:09:25;2.72;;;2.60;;
37115;SDS011;23025;41.996;23.098;2023-01-16T12:12:02;3.08;;;2.95;;
37115;SDS011;23025;41.996;23.098;2023-01-16T12:14:49;4.72;;;4.43;;
37115;SDS011;23025;41.996;23.098;2023-01-16T12:17:18;4.00;;;3.80;;
37115;SDS011;23025;41.996;23.098;2023-01-16T12:20:03;3.28;;;3.08;;
37115;SDS011;23025;41.996;23.098;2023-01-16T12:22:35;2.83;;;2.67;;
37115;SDS011;23025;41.996;23.098;2023-01-16T12:25:04;2.58;;;2.38;;
37115;SDS011;23025;41.996;23.098;2023-01-16T12:27:34;4.32;;;4.13;;
37115;SDS011;23025;41.996;23.098;2023-01-16T12:30:05;3.45;;;3.25;;
37115;SDS011;23025;41.996;23.098;2023-01-16T12:32:45;2.30;;;2.17;;
37115;SDS011;23025;41.996;23.098;2023-01-16T12:37:53;3.08;;;2.88;;
37115;SDS011;23025;41.996;23.098;2023-01-16T12:40:26;2.10;;;2.00;;
37115;SDS011;23025;41.996;23.098;2023-01-16T12:42:57;2.97;;;2.85;;
37115;SDS011;23025;41.996;23.098;2023-01-16T12:45:44;2.90;;;2.70;;
37115;SDS011;23025;41.996;23.098;2023-01-16T12:48:17;3.92;;;3.70;;
37115;SDS011;23025;41.996;23.098;2023-01-16T12:50:51;2.88;;;2.67;;
37115;SDS011;23025;41.996;23.098;2023-01-16T12:53:23;3.90;;;3.67;;
37115;SDS011;23025;41.996;23.098;2023-01-16T12:55:54;4.20;;;3.90;;
37115;SDS011;23025;41.996;23.098;2023-01-16T12:58:24;4.85;;;4.50;;
37115;SDS011;23025;41.996;23.098;2023-01-16T13:00:58;4.53;;;4.28;;
37115;SDS011;23025;41.996;23.098;2023-01-16T13:03:27;8.18;;;7.82;;
37115;SDS011;23025;41.996;23.098;2023-01-16T13:05:59;3.55;;;3.35;;
37115;SDS011;23025;41.996;23.098;2023-01-16T13:08:27;3.17;;;2.97;;
37115;SDS011;23025;41.996;23.098;2023-01-16T13:13:42;5.70;;;5.40;;
37115;SDS011;23025;41.996;23.098;2023-01-16T13:16:12;5.90;;;5.20;;
37115;SDS011;23025;41.996;23.098;2023-01-16T13:18:42;4.00;;;3.70;;
37115;SDS011;23025;41.996;23.098;2023-01-16T13:23:38;3.40;;;3.30;;
37115;SDS011;23025;41.996;23.098;2023-01-16T13:26:07;4.00;;;3.78;;
37115;SDS011;23025;41.996;23.098;2023-01-16T13:28:36;8.70;;;8.18;;
37115;SDS011;23025;41.996;23.098;2023-01-16T13:31:10;2.75;;;2.65;;
37115;SDS011;23025;41.996;23.098;2023-01-16T13:33:39;2.85;;;2.65;;
37115;SDS011;23025;41.996;23.098;2023-01-16T13:36:10;2.65;;;2.55;;
37115;SDS011;23025;41.996;23.098;2023-01-16T13:38:50;4.75;;;4.45;;
37115;SDS011;23025;41.996;23.098;2023-01-16T13:41:21;7.82;;;7.38;;
37115;SDS011;23025;41.996;23.098;2023-01-16T13:43:50;4.25;;;3.92;;
37115;SDS011;23025;41.996;23.098;2023-01-16T13:46:37;2.05;;;1.95;;
37115;SDS011;23025;41.996;23.098;2023-01-16T13:49:04;2.83;;;2.63;;
37115;SDS011;23025;41.996;23.098;2023-01-16T13:51:41;4.65;;;4.28;;
37115;SDS011;23025;41.996;23.098;2023-01-16T13:54:10;3.83;;;3.55;;
37115;SDS011;23025;41.996;23.098;2023-01-16T13:56:39;4.53;;;4.18;;
37115;SDS011;23025;41.996;23.098;2023-01-16T13:59:06;1.73;;;1.63;;
37115;SDS011;23025;41.996;23.098;2023-01-16T14:01:42;3.65;;;3.42;;
37115;SDS011;23025;41.996;23.098;2023-01-16T14:04:31;1.85;;;1.73;;
37115;SDS011;23025;41.996;23.098;2023-01-16T14:06:59;3.00;;;2.83;;
37115;SDS011;23025;41.996;23.098;2023-01-16T14:10:07;3.63;;;3.42;;
37115;SDS011;23025;41.996;23.098;2023-01-16T14:12:41;3.17;;;2.92;;
37115;SDS011;23025;41.996;23.098;2023-01-16T14:15:15;3.20;;;3.00;;
37115;SDS011;23025;41.996;23.098;2023-01-16T14:18:00;2.42;;;2.30;;
37115;SDS011;23025;41.996;23.098;2023-01-16T14:20:36;3.92;;;3.72;;
37115;SDS011;23025;41.996;23.098;2023-01-16T14:23:04;5.63;;;5.38;;
37115;SDS011;23025;41.996;23.098;2023-01-16T14:25:50;3.92;;;3.08;;
37115;SDS011;23025;41.996;23.098;2023-01-16T14:28:17;2.40;;;2.22;;
37115;SDS011;23025;41.996;23.098;2023-01-16T14:30:43;2.95;;;2.35;;
37115;SDS011;23025;41.996;23.098;2023-01-16T14:33:11;5.70;;;2.58;;
37115;SDS011;23025;41.996;23.098;2023-01-16T14:35:42;2.50;;;2.30;;
37115;SDS011;23025;41.996;23.098;2023-01-16T14:38:12;3.63;;;3.33;;
37115;SDS011;23025;41.996;23.098;2023-01-16T14:40:45;3.60;;;3.50;;
37115;SDS011;23025;41.996;23.098;2023-01-16T14:43:31;3.40;;;3.20;;
37115;SDS011;23025;41.996;23.098;2023-01-16T14:46:31;5.32;;;5.05;;
37115;SDS011;23025;41.996;23.098;2023-01-16T14:52:20;4.00;;;3.78;;
37115;SDS011;23025;41.996;23.098;2023-01-16T14:55:19;2.50;;;2.40;;
37115;SDS011;23025;41.996;23.098;2023-01-16T14:57:46;1.55;;;1.50;;
37115;SDS011;23025;41.996;23.098;2023-01-16T15:00:15;3.88;;;3.67;;
37115;SDS011;23025;41.996;23.098;2023-01-16T15:02:45;1.95;;;1.85;;
37115;SDS011;23025;41.996;23.098;2023-01-16T15:05:13;2.60;;;2.50;;
37115;SDS011;23025;41.996;23.098;2023-01-16T15:07:43;3.03;;;2.90;;
37115;SDS011;23025;41.996;23.098;2023-01-16T15:10:11;3.17;;;3.08;;
37115;SDS011;23025;41.996;23.098;2023-01-16T15:12:40;2.88;;;2.72;;
37115;SDS011;23025;41.996;23.098;2023-01-16T15:15:18;1.85;;;1.75;;
37115;SDS011;23025;41.996;23.098;2023-01-16T15:17:45;3.15;;;2.95;;
37115;SDS011;23025;41.996;23.098;2023-01-16T15:20:29;3.53;;;3.33;;